KAPAKCNU

Guest
Details From KAPA - Centennial
To KCNU - Chanute Martin Johnson
Flight Number -
Tags Generated
Created
Modified
Stats Distance 454 nm / 840 km
Max Altitude 0 ft / 0 m
Waypoints 4
Social Downloads 1
Likes 0
Share VATSIM

Download

Looking for another format? Having issues loading an existing format? Contact us
Advertisement - Login to hide

Notes

Generated

Route

KAPA 12388 MACEZ KCNU

ID Type Via Altitude Latitude Longitude Leg Dist Tot Dist Heading (true) Name
O KAPA APT - 0 ft / 0 m 39.57290˚ -104.84822˚ - 0 nm - CENTENNIAL
12388 FIX - 0 ft / 0 m 38.64536˚ -99.76692˚ 243 nm 243 nm 102° / 105° -
MACEZ FIX - 0 ft / 0 m 37.66650˚ -95.49028˚ 210 nm 453 nm 105° / 108° -
O KCNU APT - 0 ft / 0 m 37.66894˚ -95.48748˚ 0 nm 453 nm 42° / 42° CHANUTE MARTIN JOHNSON

Altitude Profile

Advertisement - Login to hide

Weather


0- 5 10 15 20 25 30 35+ Temperature / ° C

Clouds and Precipitation
Forecast for 2017-12-12 18:00 UTC. Updated an hour ago

Ground ~20,000 ft ~40,000 ft Winds

KAPA

Details ICAO KAPA (APA)
Name CENTENNIAL
Region United States
Timezone America/Denver (UTC-7.0)
Stats Elevation 5,883 ft / 1,793 m (AMSL)
Location 39.570116° -104.848132°
Runways 3
Magnetic Variation 8.129° E

METAR

KAPA 121553Z 21006KT 10SM CLR 10/M10 A3035 RMK AO2 SLP278 T01001100

Decode

TAF

KAPA 121121Z 1212/1312 16006KT P6SM SKC FM121700 VRB04KT P6SM SKC FM122000 04006KT P6SM FEW250 FM130000 13007KT P6SM FEW250 FM130200 19008KT P6SM SCT220

Decode

Departure Runways

ID Width Length Bearing (true) Bearing (mag) Surface Threshold Offset Overrun Length
10 75 ft / 23 m 4,791 ft / 1,460 m 111.02° 102.89° Asphalt 0 ft / 0 m 0 ft / 0 m
17L 100 ft / 30 m 10,017 ft / 3,053 m 177.97° 169.84° Asphalt 0 ft / 0 m 0 ft / 0 m
17R 77 ft / 23 m 7,014 ft / 2,138 m 177.96° 169.83° Asphalt 0 ft / 0 m 0 ft / 0 m
28 75 ft / 23 m 4,791 ft / 1,460 m 291.03° 282.90° Asphalt 0 ft / 0 m 0 ft / 0 m
35L 77 ft / 23 m 7,014 ft / 2,138 m 357.96° 349.83° Asphalt 0 ft / 0 m 0 ft / 0 m
35R 100 ft / 30 m 10,017 ft / 3,053 m 357.97° 349.84° Asphalt 0 ft / 0 m 0 ft / 0 m

KCNU

Details ICAO KCNU
Name CHANUTE MARTIN JOHNSON
Region United States
Timezone America/Chicago (UTC-6.0)
Stats Elevation 1,002 ft / 305 m (AMSL)
Location 37.668413° -95.485223°
Runways 2
Magnetic Variation 2.355° E

METAR

KCNU 121552Z AUTO 36007KT 10SM CLR 01/M07 A3039 RMK AO2 SLP296 T00061072

Decode

TAF

KCNU 121122Z 1212/1312 34009KT P6SM SKC FM121800 31009KT P6SM SKC FM122100 25007KT P6SM SKC FM131000 20008KT P6SM SKC

Decode

Destination Runways

ID Width Length Bearing (true) Bearing (mag) Surface Threshold Offset Overrun Length
08 135 ft / 41 m 2,166 ft / 660 m 90.00° 87.65° Grass 0 ft / 0 m 0 ft / 0 m
18 75 ft / 23 m 4,263 ft / 1,300 m 186.60° 184.25° Asphalt 0 ft / 0 m 0 ft / 0 m
26 135 ft / 41 m 2,166 ft / 660 m 270.00° 267.65° Grass 0 ft / 0 m 0 ft / 0 m
36 75 ft / 23 m 4,263 ft / 1,300 m 6.60° 4.25° Asphalt 270 ft / 82 m 0 ft / 0 m